Pagrindinis puslapis
METAR-TAF:

METAR-TAF

Oro uostai :

Bužumbūra, Burundis

platuma: 03-19S, ilguma: 029-19E, Aukštis: 782 m

METAR: trūkstamas

Laikas: 13:12 (11:12 UTC)

Prognozė

Ataskaita buvo paskelbta 12 minutes, ne 11:00 UTC
Prognozė galioja nuo 30 metu 12 UTC su 31 metu 18 UTC
Vėjas 10 kt iš Pietų su gūsio iki 22 kt
Matomumas 10 km arba daugiau
Mažai debesys ne aukštis 3000 ft
Mažai debesys ne aukštis 2500 ft

TAF: HBBA 301100Z 3012/3118 18010G20KT 9999 FEW030 BECMG3018/3020 00000KT BECMG3107/3109 18010G22KT 9999 FEW025

Orai ataskaitas ir orų prognozės (METAR, TAF).

turimą stotys yra geltonos ir raudonos taškus žemėlapyje.

Perkelti pele per norėdami pamatyti stoties vardą.

Tada spustelėkite, norėdami matyti oro stebėjimo ir prognozės.

Norėdami pakeisti žemėlapį: spustelėkite ant žalios mygtukų su juodo kryžiaus žemyn,; žalią mygtuką su brūkšneliu, jei norite nutolinti; arba žalių rodyklių gretimoms žemėlapius.


METAR-TAF: